Time;durP1;ratioP1;P1;durP2;ratioP2;P2;SDS_P1;SDS_P2;PMS_P1;PMS_P2;Temp;Humidity;BMP_temperature;BMP_pressure;BME280_temperature;BME280_humidity;BME280_pressure;Samples;Min_cycle;Max_cycle;Signal;HPM_P1;HPM_P2
2023/02/27 00:00:32;;;;;;;5.30;1.98;;;2.50;99.90;;;;;;4863220;29;20045;-90
2023/02/27 00:02:58;;;;;;;6.68;2.03;;;2.50;99.90;;;;;;4863334;29;20053;-90
2023/02/27 00:05:24;;;;;;;4.53;1.90;;;2.50;99.90;;;;;;4867937;29;20062;-89
2023/02/27 00:07:50;;;;;;;5.65;1.83;;;2.50;99.90;;;;;;4863418;29;20045;-90
2023/02/27 00:10:16;;;;;;;5.60;1.60;;;2.50;99.90;;;;;;4861962;29;20049;-91
2023/02/27 00:12:42;;;;;;;4.55;1.50;;;2.40;99.90;;;;;;4863471;29;20037;-90
2023/02/27 00:15:11;;;;;;;5.60;1.77;;;2.40;99.90;;;;;;4862065;29;20067;-91
2023/02/27 00:17:37;;;;;;;6.88;1.85;;;2.40;99.90;;;;;;4863771;29;20506;-90
2023/02/27 00:20:09;;;;;;;3.97;1.42;;;2.40;99.90;;;;;;4863590;29;20053;-90
2023/02/27 00:22:35;;;;;;;6.95;1.80;;;2.40;99.90;;;;;;4849803;29;20045;-90
2023/02/27 00:25:01;;;;;;;4.40;1.58;;;2.30;99.90;;;;;;4858702;29;20040;-89
2023/02/27 00:27:27;;;;;;;3.85;1.60;;;2.30;99.90;;;;;;4862034;29;20093;-90
2023/02/27 00:29:52;;;;;;;6.63;1.77;;;2.20;99.90;;;;;;4861076;29;20065;-90
2023/02/27 00:32:18;;;;;;;5.20;1.70;;;2.20;99.90;;;;;;4852506;29;20049;-90
2023/02/27 00:34:43;;;;;;;3.50;1.40;;;2.20;99.90;;;;;;4858742;29;20062;-91
2023/02/27 00:37:09;;;;;;;6.95;1.70;;;2.20;99.90;;;;;;4857808;29;20101;-90
2023/02/27 00:39:35;;;;;;;4.22;1.58;;;2.20;99.90;;;;;;4861756;29;20119;-90
2023/02/27 00:42:00;;;;;;;3.65;1.30;;;2.10;99.90;;;;;;4849611;29;20099;-91
2023/02/27 00:44:26;;;;;;;4.25;1.48;;;2.10;99.90;;;;;;4847633;29;20050;-90
2023/02/27 00:46:51;;;;;;;4.53;1.67;;;2.10;99.90;;;;;;4846036;29;20506;-90
2023/02/27 00:49:18;;;;;;;3.38;1.45;;;2.10;99.90;;;;;;4857169;29;20046;-89
2023/02/27 00:51:44;;;;;;;3.95;1.58;;;2.00;99.90;;;;;;4859382;29;20049;-90
2023/02/27 00:54:10;;;;;;;3.90;1.63;;;2.00;99.90;;;;;;4861592;29;20053;-90
2023/02/27 00:56:36;;;;;;;4.75;1.40;;;2.00;99.90;;;;;;4856142;29;20033;-90
2023/02/27 00:59:01;;;;;;;5.80;1.40;;;1.90;99.90;;;;;;4845691;29;20038;-91
2023/02/27 01:01:27;;;;;;;4.53;1.80;;;1.90;99.90;;;;;;4861098;29;20549;-89
2023/02/27 01:03:52;;;;;;;3.80;1.40;;;1.90;99.90;;;;;;4860282;29;20049;-91
2023/02/27 01:06:18;;;;;;;4.28;1.60;;;1.90;99.90;;;;;;4862147;29;20050;-91
2023/02/27 01:08:44;;;;;;;4.70;1.55;;;1.90;99.90;;;;;;4861041;29;20125;-90
2023/02/27 01:11:09;;;;;;;6.32;1.80;;;1.80;99.90;;;;;;4864361;29;20053;-90
2023/02/27 01:13:35;;;;;;;4.45;1.67;;;1.80;99.90;;;;;;4861771;29;20045;-91
2023/02/27 01:16:01;;;;;;;4.82;1.67;;;1.80;99.90;;;;;;4862907;29;20049;-91
2023/02/27 01:18:26;;;;;;;4.40;1.73;;;1.80;99.90;;;;;;4861848;29;20049;-91
2023/02/27 01:20:53;;;;;;;5.22;1.88;;;1.80;99.90;;;;;;4861897;29;20125;-91
2023/02/27 01:23:19;;;;;;;6.45;1.67;;;1.80;99.90;;;;;;4892235;29;20101;-90
2023/02/27 01:25:46;;;;;;;4.57;1.52;;;1.70;99.90;;;;;;4861244;29;20045;-92
2023/02/27 01:28:12;;;;;;;6.32;2.00;;;1.70;99.90;;;;;;4860994;29;20052;-91
2023/02/27 01:30:39;;;;;;;4.75;1.60;;;1.70;99.90;;;;;;4861296;29;20049;-91
2023/02/27 01:33:05;;;;;;;6.10;1.90;;;1.70;99.90;;;;;;4861399;29;20101;-92
2023/02/27 01:35:31;;;;;;;4.35;1.58;;;1.70;99.90;;;;;;4861457;29;20057;-91
2023/02/27 01:37:57;;;;;;;4.60;1.40;;;1.70;99.90;;;;;;4862753;29;20049;-92
2023/02/27 01:40:23;;;;;;;4.28;1.70;;;1.60;99.90;;;;;;4862167;29;20053;-91
2023/02/27 01:42:48;;;;;;;7.50;1.85;;;1.60;99.90;;;;;;4860816;29;20141;-92
2023/02/27 01:45:28;;;;;;;5.38;1.75;;;1.60;99.90;;;;;;4848465;29;20052;-91
2023/02/27 01:48:02;;;;;;;5.03;1.77;;;1.60;99.90;;;;;;4860919;29;20478;-91
2023/02/27 01:50:29;;;;;;;4.63;1.67;;;1.60;99.90;;;;;;4860905;29;20055;-92
2023/02/27 01:52:58;;;;;;;4.75;1.40;;;1.50;99.90;;;;;;4860788;29;20574;-92
2023/02/27 01:55:26;;;;;;;4.90;1.90;;;1.50;99.90;;;;;;4861858;29;20050;-92
2023/02/27 01:57:52;;;;;;;4.57;1.67;;;1.50;99.90;;;;;;4860985;29;20509;-91
2023/02/27 02:00:19;;;;;;;6.40;1.73;;;1.50;99.90;;;;;;4861683;29;20049;-91
2023/02/27 02:03:11;;;;;;;6.22;1.88;;;1.50;99.90;;;;;;4860744;29;20049;-91
2023/02/27 02:05:38;;;;;;;5.82;1.65;;;1.40;99.90;;;;;;4861808;29;20041;-92
2023/02/27 02:08:05;;;;;;;4.28;1.80;;;1.40;99.90;;;;;;4861540;29;20124;-92
2023/02/27 02:10:32;;;;;;;6.90;2.15;;;1.40;99.90;;;;;;4860203;29;20097;-90
2023/02/27 02:12:59;;;;;;;5.00;1.98;;;1.40;99.90;;;;;;4860755;29;20069;-90
2023/02/27 02:15:32;;;;;;;5.93;1.77;;;1.40;99.90;;;;;;4860378;29;20068;-91
2023/02/27 02:18:14;;;;;;;7.25;2.20;;;1.40;99.90;;;;;;4861973;29;20049;-91
2023/02/27 02:20:51;;;;;;;5.22;1.90;;;1.40;99.90;;;;;;4862172;29;20061;-90
2023/02/27 02:23:32;;;;;;;6.63;2.00;;;1.30;99.90;;;;;;4861309;29;20038;-91
2023/02/27 02:26:19;;;;;;;5.85;2.13;;;1.30;99.90;;;;;;4860260;29;20049;-90
2023/02/27 02:29:03;;;;;;;3.92;1.83;;;1.30;99.90;;;;;;4867058;29;20061;-90
2023/02/27 02:31:38;;;;;;;6.55;1.95;;;1.40;99.90;;;;;;4879859;29;20049;-91
2023/02/27 02:34:16;;;;;;;5.72;2.00;;;1.30;99.90;;;;;;4868273;29;20110;-90
2023/02/27 02:37:16;;;;;;;5.38;1.77;;;1.40;99.90;;;;;;4859955;29;20041;-89
2023/02/27 02:39:54;;;;;;;7.57;1.95;;;1.30;99.90;;;;;;4861366;29;20073;-90
2023/02/27 02:42:34;;;;;;;6.32;2.20;;;1.30;99.90;;;;;;4860727;29;20045;-90
2023/02/27 02:45:27;;;;;;;5.90;2.20;;;1.30;99.90;;;;;;4858726;29;20048;-89
2023/02/27 02:48:10;;;;;;;4.85;2.20;;;1.30;99.90;;;;;;4861278;29;20041;-90
2023/02/27 02:50:57;;;;;;;6.03;2.20;;;1.40;99.90;;;;;;4859935;29;20057;-89
2023/02/27 02:53:43;;;;;;;5.95;1.95;;;1.30;99.90;;;;;;4867685;29;20041;-90
2023/02/27 02:56:31;;;;;;;5.95;1.88;;;1.30;99.90;;;;;;4863880;29;20069;-90
2023/02/27 02:59:28;;;;;;;6.95;2.22;;;1.30;99.90;;;;;;4865078;29;20041;-90
2023/02/27 03:02:05;;;;;;;5.72;2.10;;;1.30;99.90;;;;;;4867005;29;20129;-90
2023/02/27 03:04:41;;;;;;;7.72;2.20;;;1.30;99.90;;;;;;4862843;29;20129;-92
2023/02/27 03:07:45;;;;;;;7.38;2.13;;;1.30;99.90;;;;;;4865098;29;20046;-91
2023/02/27 03:10:19;;;;;;;;;;;1.30;99.90;;;;;;4876372;29;20061;-90
2023/02/27 03:12:48;;;;;;;;;;;1.30;99.90;;;;;;4865028;29;20727;-91
2023/02/27 03:15:46;;;;;;;4.80;1.95;;;1.20;99.90;;;;;;4864622;29;20455;-92
2023/02/27 03:18:38;;;;;;;7.00;2.00;;;1.30;99.90;;;;;;4851201;29;20122;-90
2023/02/27 03:21:12;;;;;;;6.18;1.98;;;1.30;99.90;;;;;;4842781;29;20418;-91
2023/02/27 03:23:46;;;;;;;6.85;2.20;;;1.30;99.90;;;;;;4856514;29;20513;-92
2023/02/27 03:26:17;;;;;;;6.35;2.00;;;1.30;99.90;;;;;;4863091;29;20049;-91
2023/02/27 03:29:06;;;;;;;4.88;1.90;;;1.30;99.90;;;;;;4862525;29;20057;-91
2023/02/27 03:31:48;;;;;;;4.70;1.90;;;1.30;99.90;;;;;;4862377;29;20061;-89
2023/02/27 03:34:26;;;;;;;4.97;1.88;;;1.30;99.90;;;;;;4864623;29;20037;-90
2023/02/27 03:37:19;;;;;;;6.60;1.95;;;1.30;99.90;;;;;;4864645;29;20045;-90
2023/02/27 03:39:49;;;;;;;6.40;1.90;;;1.30;99.90;;;;;;4862672;29;20095;-91
2023/02/27 03:42:29;;;;;;;5.90;2.05;;;1.30;99.90;;;;;;4862760;29;20041;-91
2023/02/27 03:44:59;;;;;;;7.05;2.40;;;1.30;99.90;;;;;;4864561;29;20451;-91
2023/02/27 03:47:25;;;;;;;5.07;1.92;;;1.30;99.90;;;;;;4861763;29;20510;-90
2023/02/27 03:49:51;;;;;;;6.63;2.13;;;1.30;99.90;;;;;;4864146;29;20045;-91
2023/02/27 03:52:20;;;;;;;5.43;1.92;;;1.30;99.90;;;;;;4866620;29;20089;-91
2023/02/27 03:55:04;;;;;;;6.07;2.03;;;1.30;99.90;;;;;;4882172;29;20091;-90
2023/02/27 03:57:31;;;;;;;6.47;2.00;;;1.30;99.90;;;;;;4873528;29;20037;-90
2023/02/27 03:59:57;;;;;;;7.07;2.20;;;1.30;99.90;;;;;;4893610;29;20081;-90
2023/02/27 04:02:23;;;;;;;5.70;1.85;;;1.30;99.90;;;;;;4862529;29;20034;-90
2023/02/27 04:04:48;;;;;;;5.90;2.00;;;1.30;99.90;;;;;;4863266;29;20053;-89
2023/02/27 04:07:28;;;;;;;6.95;1.80;;;1.30;99.90;;;;;;4861379;29;20049;-89
2023/02/27 04:10:18;;;;;;;4.40;1.80;;;1.30;99.90;;;;;;4862695;29;20073;-90
2023/02/27 04:13:21;;;;;;;6.72;2.20;;;1.30;99.90;;;;;;4859506;29;20046;-91
2023/02/27 04:16:14;;;;;;;6.20;1.90;;;1.30;99.90;;;;;;4856452;29;20049;-91
2023/02/27 04:19:14;;;;;;;5.50;1.87;;;1.30;99.90;;;;;;4862242;29;20109;-90
2023/02/27 04:21:50;;;;;;;4.68;1.90;;;1.30;99.90;;;;;;4863301;29;20660;-91
2023/02/27 04:24:38;;;;;;;5.75;2.03;;;1.30;99.90;;;;;;4879385;29;20076;-90
2023/02/27 04:27:38;;;;;;;6.45;1.80;;;1.30;99.90;;;;;;4878612;29;20131;-90
2023/02/27 04:30:39;;;;;;;4.10;1.73;;;1.30;99.90;;;;;;4871928;29;20152;-91
2023/02/27 04:33:41;;;;;;;6.47;2.20;;;1.30;99.90;;;;;;4871441;23;20057;-92
2023/02/27 04:36:12;;;;;;;6.63;2.17;;;1.20;99.90;;;;;;4863503;29;20136;-92
2023/02/27 04:39:11;;;;;;;5.80;2.03;;;1.20;99.90;;;;;;4863291;29;20044;-91
2023/02/27 04:41:44;;;;;;;5.05;1.95;;;1.20;99.90;;;;;;4862569;29;20140;-91
2023/02/27 04:44:11;;;;;;;;;;;1.20;99.90;;;;;;4862384;29;20444;-90
2023/02/27 04:46:41;;;;;;;4.35;1.70;;;1.20;99.90;;;;;;4853305;29;19924;-91
2023/02/27 04:49:22;;;;;;;5.45;2.13;;;1.20;99.90;;;;;;4861592;29;20455;-90
2023/02/27 04:51:59;;;;;;;6.75;2.08;;;1.20;99.90;;;;;;4861322;29;20069;-89
2023/02/27 04:54:37;;;;;;;8.48;2.35;;;1.20;99.90;;;;;;4861387;29;20045;-90
2023/02/27 04:57:07;;;;;;;6.70;2.10;;;1.10;99.90;;;;;;4861560;29;20049;-91
2023/02/27 04:59:38;;;;;;;6.68;1.95;;;1.10;99.90;;;;;;4861170;29;20046;-91
2023/02/27 05:02:12;;;;;;;4.70;2.03;;;1.10;99.90;;;;;;4859068;29;20038;-90
2023/02/27 05:04:40;;;;;;;5.22;2.10;;;1.10;99.90;;;;;;4860986;29;20093;-91
2023/02/27 05:07:09;;;;;;;7.55;2.20;;;1.10;99.90;;;;;;4863427;29;20042;-90
2023/02/27 05:09:48;;;;;;;9.50;2.08;;;1.10;99.90;;;;;;4861889;29;20046;-89
2023/02/27 05:12:13;;;;;;;6.68;2.45;;;1.10;99.90;;;;;;4861260;29;20064;-89
2023/02/27 05:15:01;;;;;;;4.72;2.08;;;1.00;99.90;;;;;;4861094;29;20494;-89
2023/02/27 05:17:57;;;;;;;6.45;2.08;;;1.00;99.90;;;;;;4860468;29;20061;-90
2023/02/27 05:20:26;;;;;;;7.53;2.25;;;1.00;99.90;;;;;;4860918;29;20053;-91
2023/02/27 05:23:45;;;;;;;5.88;2.15;;;1.00;99.90;;;;;;4860706;29;20049;-85
2023/02/27 05:26:28;;;;;;;7.40;2.00;;;1.00;99.90;;;;;;4807219;29;20214;-85
2023/02/27 05:29:04;;;;;;;8.77;2.35;;;0.90;99.90;;;;;;4859533;29;20493;-84
2023/02/27 05:31:50;;;;;;;6.13;1.95;;;0.90;99.90;;;;;;4860872;29;20041;-84
2023/02/27 05:34:34;;;;;;;4.95;1.70;;;0.90;99.90;;;;;;4859674;29;20092;-90
2023/02/27 05:37:07;;;;;;;;;;;0.90;99.90;;;;;;4855144;29;20078;-91
2023/02/27 05:39:36;;;;;;;5.13;1.90;;;0.80;99.90;;;;;;4860671;29;19924;-95
2023/02/27 05:42:14;;;;;;;5.22;2.00;;;0.80;99.90;;;;;;4852381;29;20155;-96
2023/02/27 05:44:46;;;;;;;5.68;2.00;;;0.80;99.90;;;;;;4849105;29;20132;-86
2023/02/27 05:47:17;;;;;;;;;;;0.70;99.90;;;;;;4845602;29;20117;-88
2023/02/27 05:49:53;;;;;;;7.00;2.13;;;0.70;99.90;;;;;;4861727;29;19931;-88
2023/02/27 05:52:23;;;;;;;5.95;2.30;;;0.70;99.90;;;;;;4860723;29;20120;-89
2023/02/27 05:54:59;;;;;;;6.05;1.98;;;0.70;99.90;;;;;;4861267;29;20133;-87
2023/02/27 05:57:42;;;;;;;9.73;2.20;;;0.60;99.90;;;;;;4861139;29;20105;-88
2023/02/27 06:00:50;;;;;;;5.80;2.00;;;0.60;99.90;;;;;;4859254;29;20057;-88
2023/02/27 06:03:16;;;;;;;8.68;2.13;;;0.60;99.90;;;;;;4860203;29;20402;-88
2023/02/27 06:05:43;;;;;;;6.55;2.70;;;0.50;99.90;;;;;;4859598;29;20410;-88
2023/02/27 06:08:10;;;;;;;8.65;2.72;;;0.50;99.90;;;;;;4858821;29;20534;-88
2023/02/27 06:10:35;;;;;;;11.23;2.42;;;0.50;99.90;;;;;;4861159;29;20041;-88
2023/02/27 06:13:01;;;;;;;6.63;2.30;;;0.50;99.90;;;;;;4860573;29;20053;-87
2023/02/27 06:15:27;;;;;;;5.22;2.08;;;0.50;99.90;;;;;;4874453;29;20150;-88
2023/02/27 06:17:53;;;;;;;6.95;2.25;;;0.50;99.90;;;;;;4860824;29;20440;-88
2023/02/27 06:20:19;;;;;;;6.63;2.17;;;0.50;99.90;;;;;;4858944;29;20037;-88
2023/02/27 06:22:44;;;;;;;4.93;2.05;;;0.40;99.90;;;;;;4859425;29;20506;-88
2023/02/27 06:25:10;;;;;;;7.13;2.05;;;0.40;99.90;;;;;;4875679;29;20051;-88
2023/02/27 06:27:36;;;;;;;6.57;2.05;;;0.40;99.90;;;;;;4859650;29;20110;-87
2023/02/27 06:30:02;;;;;;;6.43;2.25;;;0.40;99.90;;;;;;4858758;29;20136;-88
2023/02/27 06:32:28;;;;;;;9.77;2.63;;;0.40;99.90;;;;;;4859660;29;20456;-88
2023/02/27 06:34:54;;;;;;;10.18;2.00;;;0.40;99.90;;;;;;4859961;29;20045;-87
2023/02/27 06:37:20;;;;;;;7.38;2.30;;;0.40;99.90;;;;;;4860195;29;20074;-87
2023/02/27 06:39:46;;;;;;;6.97;2.17;;;0.40;99.90;;;;;;4859551;29;20057;-88
2023/02/27 06:42:12;;;;;;;6.85;2.10;;;0.40;99.90;;;;;;4858455;29;20091;-88
2023/02/27 06:44:38;;;;;;;7.60;2.58;;;0.30;99.90;;;;;;4859156;29;20081;-88
2023/02/27 06:47:04;;;;;;;5.18;1.92;;;0.30;99.90;;;;;;4859259;29;20063;-88
2023/02/27 06:49:30;;;;;;;5.13;1.83;;;0.40;99.90;;;;;;4860204;29;20140;-87
2023/02/27 06:51:56;;;;;;;6.72;1.95;;;0.30;99.90;;;;;;4860174;29;20494;-87
2023/02/27 06:54:21;;;;;;;7.60;2.17;;;0.30;99.90;;;;;;4859109;29;20056;-87
2023/02/27 06:56:47;;;;;;;8.50;2.05;;;0.30;99.90;;;;;;4858548;29;20106;-88
2023/02/27 06:59:13;;;;;;;6.57;1.90;;;0.30;99.90;;;;;;4860180;29;20045;-88
2023/02/27 07:01:38;;;;;;;6.70;2.00;;;0.30;99.90;;;;;;4860184;29;20102;-89
2023/02/27 07:04:04;;;;;;;6.78;2.22;;;0.30;99.90;;;;;;4860516;29;20391;-88
2023/02/27 07:06:30;;;;;;;5.88;2.10;;;0.30;99.90;;;;;;4874183;29;20092;-88
2023/02/27 07:08:55;;;;;;;6.82;2.15;;;0.30;99.90;;;;;;4859666;29;20053;-88
2023/02/27 07:11:21;;;;;;;6.90;1.98;;;0.30;99.90;;;;;;4859850;29;20041;-88
2023/02/27 07:13:47;;;;;;;10.10;1.90;;;0.30;99.90;;;;;;4860191;29;20351;-88
2023/02/27 07:16:12;;;;;;;5.15;1.60;;;0.30;99.90;;;;;;4859042;29;20042;-88
2023/02/27 07:18:38;;;;;;;6.55;1.95;;;0.30;99.90;;;;;;4860220;29;20046;-88
2023/02/27 07:21:03;;;;;;;6.13;1.85;;;0.30;99.90;;;;;;4860750;29;20045;-89
2023/02/27 07:23:29;;;;;;;7.05;2.05;;;0.30;99.90;;;;;;4858993;29;20046;-88
2023/02/27 07:25:55;;;;;;;7.18;2.33;;;0.30;99.90;;;;;;4858732;29;20053;-88
2023/02/27 07:28:20;;;;;;;5.25;2.08;;;0.30;99.90;;;;;;4858823;29;20056;-88
2023/02/27 07:30:46;;;;;;;7.63;2.25;;;0.30;99.90;;;;;;4857746;29;20494;-88
2023/02/27 07:33:11;;;;;;;5.25;1.92;;;0.30;99.90;;;;;;4874821;29;20057;-88
2023/02/27 07:35:37;;;;;;;7.53;2.10;;;0.30;99.90;;;;;;4858927;29;20401;-88
2023/02/27 07:38:03;;;;;;;7.07;2.22;;;0.40;99.90;;;;;;4859810;29;20041;-88
2023/02/27 07:40:28;;;;;;;5.50;1.90;;;0.40;99.90;;;;;;4859691;29;20132;-88
2023/02/27 07:42:54;;;;;;;7.57;2.25;;;0.40;99.90;;;;;;4862148;29;20052;-89
2023/02/27 07:45:21;;;;;;;8.57;1.92;;;0.50;99.90;;;;;;4862338;29;20060;-88
2023/02/27 07:47:47;;;;;;;5.88;2.20;;;0.50;99.90;;;;;;4862573;29;20075;-88
2023/02/27 07:50:16;;;;;;;8.15;2.35;;;0.50;99.90;;;;;;4862183;29;20041;-87
2023/02/27 07:52:43;;;;;;;7.30;2.10;;;0.50;99.90;;;;;;4861093;29;20045;-88
2023/02/27 07:55:10;;;;;;;12.00;2.30;;;0.60;99.90;;;;;;4863789;29;20042;-88
2023/02/27 07:57:36;;;;;;;5.72;1.80;;;0.60;99.90;;;;;;4878296;29;20101;-87
2023/02/27 08:00:06;;;;;;;7.15;1.92;;;0.60;99.90;;;;;;4862755;29;20128;-88
2023/02/27 08:02:32;;;;;;;6.65;2.00;;;0.60;99.90;;;;;;4862978;29;20056;-88
2023/02/27 08:04:58;;;;;;;8.25;2.08;;;0.70;99.90;;;;;;4861297;29;20473;-87
2023/02/27 08:07:24;;;;;;;8.23;2.05;;;0.70;99.90;;;;;;4862362;29;20038;-88
2023/02/27 08:09:50;;;;;;;8.00;2.40;;;0.80;99.90;;;;;;4862791;29;20467;-87
2023/02/27 08:12:15;;;;;;;9.30;2.38;;;0.80;99.90;;;;;;4862548;29;20048;-88
2023/02/27 08:14:41;;;;;;;9.38;2.60;;;0.80;99.90;;;;;;4862134;29;20046;-87
2023/02/27 08:17:07;;;;;;;6.80;1.90;;;0.90;99.90;;;;;;4876572;29;20512;-87
2023/02/27 08:19:32;;;;;;;8.60;1.92;;;0.90;99.90;;;;;;4859478;29;20049;-87
2023/02/27 08:21:58;;;;;;;8.90;2.00;;;0.90;99.90;;;;;;4861595;29;20053;-87
2023/02/27 08:24:24;;;;;;;8.07;2.20;;;1.00;99.90;;;;;;4862787;29;20555;-87
2023/02/27 08:26:49;;;;;;;6.80;2.10;;;1.00;99.90;;;;;;4862607;29;20063;-87
2023/02/27 08:29:15;;;;;;;10.63;2.38;;;1.10;99.90;;;;;;4862104;29;20046;-87
2023/02/27 08:31:41;;;;;;;12.30;2.58;;;1.10;99.90;;;;;;4862503;29;20072;-87
2023/02/27 08:34:07;;;;;;;8.60;2.22;;;1.20;99.90;;;;;;4875876;29;20483;-88
2023/02/27 08:36:33;;;;;;;10.45;2.53;;;1.20;99.90;;;;;;4862151;29;20112;-88
2023/02/27 08:38:58;;;;;;;8.63;2.20;;;1.30;99.90;;;;;;4860752;29;20454;-88
2023/02/27 08:41:24;;;;;;;15.98;6.38;;;1.30;99.90;;;;;;4861364;29;20499;-88
2023/02/27 08:43:49;;;;;;;14.88;4.00;;;1.30;99.90;;;;;;4862490;29;20053;-88
2023/02/27 08:46:15;;;;;;;12.35;4.35;;;1.40;99.90;;;;;;4862021;29;20046;-92
2023/02/27 08:48:41;;;;;;;12.23;4.28;;;1.40;99.90;;;;;;4861738;29;20073;-93
2023/02/27 08:51:08;;;;;;;12.57;4.20;;;1.50;99.90;;;;;;4862415;29;20498;-91
2023/02/27 08:53:33;;;;;;;14.88;3.50;;;1.60;99.90;;;;;;4862868;29;20170;-91
2023/02/27 08:56:01;;;;;;;13.50;3.50;;;1.70;99.90;;;;;;4862645;29;20520;-92
2023/02/27 08:58:30;;;;;;;14.73;3.70;;;1.80;99.90;;;;;;4863161;29;20132;-91
2023/02/27 09:00:55;;;;;;;13.55;3.22;;;1.70;99.90;;;;;;4862614;29;20049;-90
2023/02/27 09:03:21;;;;;;;13.60;2.90;;;1.80;99.90;;;;;;4861776;29;20041;-90
2023/02/27 09:05:48;;;;;;;9.68;3.15;;;1.90;99.90;;;;;;4862965;29;20443;-91
2023/02/27 09:08:14;;;;;;;16.83;3.13;;;2.00;99.90;;;;;;4862557;29;20494;-90
2023/02/27 09:10:39;;;;;;;11.38;3.10;;;2.00;99.90;;;;;;4861526;29;20053;-90
2023/02/27 09:13:05;;;;;;;10.80;3.03;;;2.10;99.90;;;;;;4862401;29;20045;-91
2023/02/27 09:15:33;;;;;;;13.50;3.30;;;2.20;99.90;;;;;;4861739;29;20049;-92
2023/02/27 09:18:02;;;;;;;10.32;2.90;;;2.20;99.90;;;;;;4860736;29;20049;-90
2023/02/27 09:20:30;;;;;;;16.17;3.13;;;2.30;99.90;;;;;;4861086;29;20118;-91
2023/02/27 09:22:57;;;;;;;11.48;2.33;;;2.40;99.90;;;;;;4862783;29;20057;-91
2023/02/27 09:25:23;;;;;;;14.43;2.42;;;2.40;99.90;;;;;;4861378;29;20052;-92
2023/02/27 09:27:48;;;;;;;11.23;2.58;;;2.50;99.90;;;;;;4861583;29;20041;-94
2023/02/27 09:30:14;;;;;;;13.93;2.42;;;2.60;99.90;;;;;;4862195;29;20474;-95
2023/02/27 09:32:40;;;;;;;10.85;2.55;;;2.60;99.90;;;;;;4862281;29;20056;-91
2023/02/27 09:35:06;;;;;;;10.25;2.20;;;2.70;99.90;;;;;;4862425;29;20046;-93
2023/02/27 09:37:32;;;;;;;7.65;1.90;;;2.70;99.90;;;;;;4862211;29;20049;-93
2023/02/27 09:39:57;;;;;;;6.93;2.00;;;2.80;99.90;;;;;;4861680;29;20158;-94
2023/02/27 09:42:27;;;;;;;11.40;2.30;;;2.80;99.90;;;;;;4861576;29;20049;-96
2023/02/27 09:44:55;;;;;;;12.43;2.15;;;2.90;99.90;;;;;;4863314;29;20045;-93
2023/02/27 09:47:39;;;;;;;11.20;2.17;;;2.90;99.90;;;;;;4863139;29;20391;-93
2023/02/27 09:50:07;;;;;;;5.95;2.10;;;3.00;99.90;;;;;;4863234;29;20527;-95
2023/02/27 09:52:35;;;;;;;10.75;2.05;;;3.00;99.90;;;;;;4863626;29;20053;-95
2023/02/27 09:57:50;;;;;;;8.43;1.80;;;3.20;99.90;;;;;;5419050;23;20068;-94
2023/02/27 10:00:37;;;;;;;5.43;2.10;;;3.20;99.90;;;;;;4863752;29;20555;-95
2023/02/27 10:03:32;;;;;;;10.30;1.83;;;3.30;99.90;;;;;;4869858;29;20052;-92
2023/02/27 10:06:11;;;;;;;10.20;2.10;;;3.40;99.90;;;;;;4879043;29;20041;-93
2023/02/27 10:08:55;;;;;;;9.20;1.80;;;3.40;99.90;;;;;;4879008;29;20505;-91
2023/02/27 10:11:41;;;;;;;10.80;2.17;;;3.40;99.90;;;;;;4879372;29;20041;-94
2023/02/27 10:14:22;;;;;;;6.95;1.88;;;3.50;99.90;;;;;;4879798;29;20087;-96
2023/02/27 10:16:50;;;;;;;6.07;1.77;;;3.50;99.90;;;;;;4877451;29;20110;-91
2023/02/27 10:19:32;;;;;;;7.90;1.80;;;3.60;99.90;;;;;;4879705;29;20056;-89
2023/02/27 10:22:00;;;;;;;9.83;2.00;;;3.60;99.90;;;;;;4876872;29;20326;-92
2023/02/27 10:24:36;;;;;;;7.22;1.73;;;3.70;99.90;;;;;;4861666;29;20302;-92
2023/02/27 10:27:05;;;;;;;10.63;1.70;;;3.80;99.90;;;;;;4864476;29;20041;-93
2023/02/27 10:29:38;;;;;;;7.60;1.70;;;3.80;99.90;;;;;;4861907;29;20140;-93
2023/02/27 10:32:13;;;;;;;9.45;1.73;;;3.90;99.90;;;;;;4863043;29;20527;-93
2023/02/27 10:34:40;;;;;;;6.70;1.83;;;3.90;99.90;;;;;;4872199;29;20405;-93
2023/02/27 10:37:09;;;;;;;8.68;1.65;;;4.00;99.90;;;;;;4871299;29;20049;-95
2023/02/27 10:39:55;;;;;;;6.18;1.63;;;4.10;99.90;;;;;;4862718;29;20057;-92
2023/02/27 10:42:23;;;;;;;7.93;1.95;;;4.20;99.90;;;;;;4864140;29;20042;-92
2023/02/27 10:44:52;;;;;;;4.72;1.33;;;4.30;99.90;;;;;;4872574;29;20052;-93
2023/02/27 10:47:24;;;;;;;7.10;1.50;;;4.40;99.90;;;;;;4860340;29;20046;-93
2023/02/27 10:49:50;;;;;;;7.35;1.92;;;4.40;99.90;;;;;;4865393;29;20061;-94
2023/02/27 10:52:17;;;;;;;7.88;1.23;;;4.50;99.90;;;;;;4870201;29;20097;-93
2023/02/27 10:54:44;;;;;;;6.32;1.50;;;4.50;99.90;;;;;;4867000;29;20048;-93
2023/02/27 10:57:32;;;;;;;6.38;1.20;;;4.60;99.90;;;;;;4862803;29;20098;-94
2023/02/27 11:00:00;;;;;;;7.00;1.17;;;4.70;99.90;;;;;;4863298;29;20037;-95
2023/02/27 11:02:38;;;;;;;6.00;1.10;;;4.70;99.90;;;;;;4860790;29;20144;-96
2023/02/27 11:05:16;;;;;;;4.78;1.00;;;4.70;99.90;;;;;;4862143;29;20105;-93
2023/02/27 11:07:41;;;;;;;7.80;1.00;;;4.80;99.90;;;;;;4861318;29;20052;-95
2023/02/27 11:10:13;;;;;;;4.97;1.17;;;4.90;99.90;;;;;;4861930;29;20049;-94
2023/02/27 11:12:40;;;;;;;2.83;1.00;;;4.90;99.90;;;;;;4863122;29;20057;-95
2023/02/27 11:15:20;;;;;;;4.95;1.20;;;4.90;99.90;;;;;;4874809;29;20080;-96
2023/02/27 11:17:49;;;;;;;4.05;1.30;;;5.00;99.90;;;;;;4888516;29;20057;-93
2023/02/27 11:20:42;;;;;;;5.35;1.17;;;5.00;99.90;;;;;;4920669;23;20119;31
2023/02/27 11:23:21;;;;;;;7.07;1.33;;;5.10;99.90;;;;;;4793257;30;20063;-96
2023/02/27 11:26:25;;;;;;;5.50;1.20;;;5.10;99.90;;;;;;4800154;29;20071;-94
2023/02/27 11:29:13;;;;;;;5.70;1.17;;;5.20;99.90;;;;;;4810908;29;20054;-93
2023/02/27 11:31:46;;;;;;;5.40;0.93;;;5.30;99.90;;;;;;4796939;29;20043;-94
2023/02/27 11:34:37;;;;;;;3.03;1.10;;;5.30;99.90;;;;;;4814998;29;20038;-96
2023/02/27 11:40:11;;;;;;;5.60;1.05;;;5.30;99.90;;;;;;4881503;23;20062;-93
2023/02/27 11:42:44;;;;;;;5.40;0.80;;;5.40;99.90;;;;;;4848231;29;20065;-94
2023/02/27 11:45:19;;;;;;;3.55;0.80;;;5.40;99.90;;;;;;4849308;29;20547;-94
2023/02/27 11:47:54;;;;;;;1.67;0.65;;;5.40;99.90;;;;;;4846461;29;20068;-95
2023/02/27 11:50:35;;;;;;;3.03;0.60;;;5.50;99.90;;;;;;4846594;29;20491;-94
2023/02/27 11:53:07;;;;;;;2.92;0.90;;;5.60;99.90;;;;;;4844758;29;20052;-95
2023/02/27 11:55:33;;;;;;;3.05;0.70;;;5.60;99.90;;;;;;4844255;29;20081;-95
2023/02/27 11:58:18;;;;;;;2.67;0.68;;;5.60;99.90;;;;;;4846321;29;20050;-96
2023/02/27 12:00:56;;;;;;;4.65;0.75;;;5.70;99.90;;;;;;4842866;29;20487;-93
2023/02/27 12:03:33;;;;;;;4.45;0.80;;;5.70;99.90;;;;;;4846341;29;20065;-93
2023/02/27 12:06:14;;;;;;;5.80;1.13;;;5.70;99.90;;;;;;4828500;29;20047;-95
2023/02/27 12:08:49;;;;;;;3.47;0.70;;;5.80;99.90;;;;;;4855803;29;20049;-93
2023/02/27 12:11:19;;;;;;;3.13;0.80;;;5.80;99.90;;;;;;4846309;29;20050;-94
2023/02/27 12:13:57;;;;;;;3.70;0.88;;;5.90;99.90;;;;;;4851367;29;20113;-95
2023/02/27 12:16:41;;;;;;;2.08;0.60;;;5.90;99.90;;;;;;4843357;29;20051;-94
2023/02/27 12:19:37;;;;;;;3.28;0.65;;;5.90;99.90;;;;;;4845194;29;20068;-96
2023/02/27 12:22:19;;;;;;;3.83;0.73;;;5.90;99.90;;;;;;4845416;29;20145;-93
2023/02/27 12:24:51;;;;;;;2.97;0.73;;;6.00;99.90;;;;;;4831210;29;20506;-94
2023/02/27 12:27:40;;;;;;;5.07;0.77;;;6.00;99.90;;;;;;4842561;29;20050;-96
2023/02/27 12:30:25;;;;;;;3.65;0.90;;;6.10;99.90;;;;;;4844155;29;20042;-93
2023/02/27 12:32:59;;;;;;;2.47;0.80;;;6.10;99.90;;;;;;4842550;29;20049;-94
2023/02/27 12:35:30;;;;;;;1.38;0.57;;;6.20;99.90;;;;;;4849136;29;20101;-95
2023/02/27 12:37:57;;;;;;;3.17;0.73;;;6.20;99.90;;;;;;4848381;29;20161;-94
2023/02/27 12:40:49;;;;;;;2.35;0.70;;;6.30;99.90;;;;;;4846850;29;20046;-95
2023/02/27 12:43:52;;;;;;;4.30;0.85;;;6.40;99.90;;;;;;4816628;29;20058;-93
2023/02/27 12:46:49;;;;;;;6.35;0.90;;;6.40;99.90;;;;;;4826025;29;20383;-94
2023/02/27 12:49:28;;;;;;;3.65;0.80;;;6.40;99.90;;;;;;4828413;29;20058;-96
2023/02/27 12:52:25;;;;;;;2.95;0.80;;;6.50;99.90;;;;;;4846411;29;20414;-95
2023/02/27 12:54:54;;;;;;;3.53;0.80;;;6.50;99.90;;;;;;4839027;29;20060;-92
2023/02/27 12:57:33;;;;;;;3.97;0.80;;;6.50;99.90;;;;;;4842422;29;20038;-92
2023/02/27 13:00:08;;;;;;;2.00;0.70;;;6.60;99.90;;;;;;4824943;29;20102;-91
2023/02/27 13:02:46;;;;;;;3.20;0.70;;;6.60;99.90;;;;;;4838347;29;20065;-88
2023/02/27 13:05:26;;;;;;;2.45;0.68;;;6.60;99.90;;;;;;4844108;29;20042;-92
2023/02/27 13:08:37;;;;;;;2.83;0.70;;;6.60;99.90;;;;;;4842293;29;20049;-90
2023/02/27 13:11:21;;;;;;;3.80;0.70;;;6.70;99.90;;;;;;4818074;29;20056;-91
2023/02/27 13:14:00;;;;;;;4.00;0.70;;;6.70;99.90;;;;;;4831427;29;20026;-93
2023/02/27 13:16:36;;;;;;;3.40;0.60;;;6.70;99.90;;;;;;4825832;29;20069;-92
2023/02/27 13:19:08;;;;;;;4.03;0.70;;;6.70;99.90;;;;;;4834518;29;20487;-91
2023/02/27 13:21:43;;;;;;;3.40;0.88;;;6.80;99.80;;;;;;4825090;29;20050;-91
2023/02/27 13:24:27;;;;;;;4.35;0.82;;;6.80;99.80;;;;;;4824324;29;20062;-91
2023/02/27 13:27:18;;;;;;;1.88;0.55;;;6.80;99.30;;;;;;4824007;29;20050;-88
2023/02/27 13:30:00;;;;;;;3.25;0.65;;;6.80;99.20;;;;;;4820540;29;20464;-87
2023/02/27 13:32:30;;;;;;;2.70;0.70;;;6.80;99.40;;;;;;4823572;29;20046;-87
2023/02/27 13:35:20;;;;;;;2.92;0.63;;;6.90;99.30;;;;;;4823506;29;20065;-88